Upton, Utah
Current Conditions -  °F | °C
As of 9:03 PM on Saturday 20 Dec 2014 (Local Time) from KEVW Reporting Station
Overcast Overcast  
Wind Chill: 21°   Ceiling: 500
Heat Index: 30°   Visibility: 10mi
Dew Point: 29°   Wind: 12mph
Humidity: 96%   Direction: 220°SW
Pressure: 30.01"   Gusts: NA
Location:  40.9431°N, 111.212°W
Report Text: KEVW 210403Z AUTO 22010KT 10SM BKN005 BKN011 OVC017 M01/M02 A3001 RMK AO2 T10111017
Loading
Personal Weather Stations






























Interactive Weather Map New forecast layout! Learn more

10-Day Weather Forecast

Advertisements
Track Severe Weather on mobile